sensor_id;sensor_type;location;lat;lon;timestamp;P1;durP1;ratioP1;P2;durP2;ratioP2
45007;SDS011;30743;52.008;5.644;2023-07-31T00:02:09;1.30;;;1.15;;
45007;SDS011;30743;52.008;5.644;2023-07-31T00:04:35;1.92;;;1.42;;
45007;SDS011;30743;52.008;5.644;2023-07-31T00:07:00;1.30;;;1.08;;
45007;SDS011;30743;52.008;5.644;2023-07-31T00:09:29;2.38;;;1.20;;
45007;SDS011;30743;52.008;5.644;2023-07-31T00:11:54;1.15;;;1.05;;
45007;SDS011;30743;52.008;5.644;2023-07-31T00:14:20;1.33;;;1.20;;
45007;SDS011;30743;52.008;5.644;2023-07-31T00:16:45;1.25;;;1.10;;
45007;SDS011;30743;52.008;5.644;2023-07-31T00:19:11;1.25;;;1.15;;
45007;SDS011;30743;52.008;5.644;2023-07-31T00:21:36;1.50;;;1.20;;
45007;SDS011;30743;52.008;5.644;2023-07-31T00:24:02;2.92;;;1.70;;
45007;SDS011;30743;52.008;5.644;2023-07-31T00:26:27;3.25;;;2.08;;
45007;SDS011;30743;52.008;5.644;2023-07-31T00:28:53;4.13;;;2.45;;
45007;SDS011;30743;52.008;5.644;2023-07-31T00:31:18;4.82;;;2.40;;
45007;SDS011;30743;52.008;5.644;2023-07-31T00:33:44;4.25;;;2.70;;
45007;SDS011;30743;52.008;5.644;2023-07-31T00:36:09;6.53;;;3.47;;
45007;SDS011;30743;52.008;5.644;2023-07-31T00:38:35;12.35;;;5.00;;
45007;SDS011;30743;52.008;5.644;2023-07-31T00:41:00;13.98;;;5.35;;
45007;SDS011;30743;52.008;5.644;2023-07-31T00:43:26;12.52;;;5.60;;
45007;SDS011;30743;52.008;5.644;2023-07-31T00:45:51;15.25;;;6.68;;
45007;SDS011;30743;52.008;5.644;2023-07-31T00:48:17;16.67;;;7.38;;
45007;SDS011;30743;52.008;5.644;2023-07-31T00:50:42;17.25;;;6.85;;
45007;SDS011;30743;52.008;5.644;2023-07-31T00:53:08;24.15;;;8.25;;
45007;SDS011;30743;52.008;5.644;2023-07-31T00:55:33;23.77;;;7.63;;
45007;SDS011;30743;52.008;5.644;2023-07-31T00:57:59;18.80;;;7.18;;
45007;SDS011;30743;52.008;5.644;2023-07-31T01:00:25;18.17;;;7.85;;
45007;SDS011;30743;52.008;5.644;2023-07-31T01:02:50;17.45;;;7.60;;
45007;SDS011;30743;52.008;5.644;2023-07-31T01:05:17;16.25;;;7.05;;
45007;SDS011;30743;52.008;5.644;2023-07-31T01:07:56;15.88;;;6.70;;
45007;SDS011;30743;52.008;5.644;2023-07-31T01:10:31;15.73;;;6.50;;
45007;SDS011;30743;52.008;5.644;2023-07-31T01:13:04;22.02;;;8.68;;
45007;SDS011;30743;52.008;5.644;2023-07-31T01:15:30;20.73;;;7.07;;
45007;SDS011;30743;52.008;5.644;2023-07-31T01:17:56;17.70;;;6.95;;
45007;SDS011;30743;52.008;5.644;2023-07-31T01:20:22;16.33;;;7.35;;
45007;SDS011;30743;52.008;5.644;2023-07-31T01:22:54;16.45;;;7.03;;
45007;SDS011;30743;52.008;5.644;2023-07-31T01:28:29;20.15;;;6.30;;
45007;SDS011;30743;52.008;5.644;2023-07-31T01:31:18;16.55;;;6.32;;
45007;SDS011;30743;52.008;5.644;2023-07-31T01:33:47;14.65;;;6.00;;
45007;SDS011;30743;52.008;5.644;2023-07-31T01:36:14;16.10;;;7.45;;
45007;SDS011;30743;52.008;5.644;2023-07-31T01:38:40;17.75;;;6.35;;
45007;SDS011;30743;52.008;5.644;2023-07-31T01:41:05;16.52;;;6.45;;
45007;SDS011;30743;52.008;5.644;2023-07-31T01:43:30;17.00;;;6.18;;
45007;SDS011;30743;52.008;5.644;2023-07-31T01:45:56;12.90;;;5.40;;
45007;SDS011;30743;52.008;5.644;2023-07-31T01:48:21;18.63;;;6.03;;
45007;SDS011;30743;52.008;5.644;2023-07-31T01:50:47;19.40;;;6.68;;
45007;SDS011;30743;52.008;5.644;2023-07-31T01:53:13;16.17;;;6.55;;
45007;SDS011;30743;52.008;5.644;2023-07-31T01:55:38;12.80;;;5.88;;
45007;SDS011;30743;52.008;5.644;2023-07-31T01:58:04;13.43;;;6.68;;
45007;SDS011;30743;52.008;5.644;2023-07-31T02:00:29;13.98;;;6.28;;
45007;SDS011;30743;52.008;5.644;2023-07-31T02:02:55;15.73;;;6.30;;
45007;SDS011;30743;52.008;5.644;2023-07-31T02:05:20;12.82;;;5.95;;
45007;SDS011;30743;52.008;5.644;2023-07-31T02:07:46;12.30;;;5.57;;
45007;SDS011;30743;52.008;5.644;2023-07-31T02:10:11;14.05;;;5.40;;
45007;SDS011;30743;52.008;5.644;2023-07-31T02:12:37;12.25;;;5.75;;
45007;SDS011;30743;52.008;5.644;2023-07-31T02:15:03;15.68;;;5.68;;
45007;SDS011;30743;52.008;5.644;2023-07-31T02:17:28;12.48;;;5.00;;
45007;SDS011;30743;52.008;5.644;2023-07-31T02:19:54;14.95;;;6.00;;
45007;SDS011;30743;52.008;5.644;2023-07-31T02:22:20;9.18;;;4.38;;
45007;SDS011;30743;52.008;5.644;2023-07-31T02:24:45;12.38;;;4.65;;
45007;SDS011;30743;52.008;5.644;2023-07-31T02:27:11;10.00;;;4.70;;
45007;SDS011;30743;52.008;5.644;2023-07-31T02:29:36;14.10;;;4.50;;
45007;SDS011;30743;52.008;5.644;2023-07-31T02:32:02;9.18;;;4.85;;
45007;SDS011;30743;52.008;5.644;2023-07-31T02:34:28;12.38;;;4.85;;
45007;SDS011;30743;52.008;5.644;2023-07-31T02:36:53;11.25;;;4.65;;
45007;SDS011;30743;52.008;5.644;2023-07-31T02:39:19;13.05;;;5.43;;
45007;SDS011;30743;52.008;5.644;2023-07-31T02:41:44;13.70;;;5.35;;
45007;SDS011;30743;52.008;5.644;2023-07-31T02:44:11;12.63;;;5.28;;
45007;SDS011;30743;52.008;5.644;2023-07-31T02:46:39;11.13;;;4.90;;
45007;SDS011;30743;52.008;5.644;2023-07-31T02:49:04;11.52;;;4.97;;
45007;SDS011;30743;52.008;5.644;2023-07-31T02:51:30;9.75;;;4.88;;
45007;SDS011;30743;52.008;5.644;2023-07-31T02:53:56;14.70;;;5.60;;
45007;SDS011;30743;52.008;5.644;2023-07-31T02:56:21;15.10;;;5.07;;
45007;SDS011;30743;52.008;5.644;2023-07-31T02:58:47;14.57;;;5.00;;
45007;SDS011;30743;52.008;5.644;2023-07-31T03:01:12;13.85;;;5.28;;
45007;SDS011;30743;52.008;5.644;2023-07-31T03:03:38;15.73;;;5.00;;
45007;SDS011;30743;52.008;5.644;2023-07-31T03:06:03;14.00;;;4.95;;
45007;SDS011;30743;52.008;5.644;2023-07-31T03:08:29;16.13;;;5.28;;
45007;SDS011;30743;52.008;5.644;2023-07-31T03:10:54;14.73;;;5.22;;
45007;SDS011;30743;52.008;5.644;2023-07-31T03:13:21;16.52;;;5.38;;
45007;SDS011;30743;52.008;5.644;2023-07-31T03:15:47;14.13;;;5.47;;
45007;SDS011;30743;52.008;5.644;2023-07-31T03:18:12;13.68;;;4.63;;
45007;SDS011;30743;52.008;5.644;2023-07-31T03:20:41;11.38;;;4.97;;
45007;SDS011;30743;52.008;5.644;2023-07-31T03:23:08;15.93;;;6.07;;
45007;SDS011;30743;52.008;5.644;2023-07-31T03:25:33;14.57;;;4.80;;
45007;SDS011;30743;52.008;5.644;2023-07-31T03:27:59;13.05;;;5.40;;
45007;SDS011;30743;52.008;5.644;2023-07-31T03:30:24;13.40;;;5.40;;
45007;SDS011;30743;52.008;5.644;2023-07-31T03:32:50;14.90;;;5.47;;
45007;SDS011;30743;52.008;5.644;2023-07-31T03:35:15;13.68;;;5.25;;
45007;SDS011;30743;52.008;5.644;2023-07-31T03:37:41;12.80;;;4.63;;
45007;SDS011;30743;52.008;5.644;2023-07-31T03:40:06;11.75;;;4.97;;
45007;SDS011;30743;52.008;5.644;2023-07-31T03:42:32;13.55;;;5.32;;
45007;SDS011;30743;52.008;5.644;2023-07-31T03:44:58;15.40;;;5.05;;
45007;SDS011;30743;52.008;5.644;2023-07-31T03:47:23;11.18;;;4.43;;
45007;SDS011;30743;52.008;5.644;2023-07-31T03:49:49;14.25;;;4.93;;
45007;SDS011;30743;52.008;5.644;2023-07-31T03:52:14;13.38;;;4.63;;
45007;SDS011;30743;52.008;5.644;2023-07-31T03:54:40;16.20;;;5.25;;
45007;SDS011;30743;52.008;5.644;2023-07-31T03:57:05;11.52;;;4.95;;
45007;SDS011;30743;52.008;5.644;2023-07-31T03:59:31;15.95;;;5.40;;
45007;SDS011;30743;52.008;5.644;2023-07-31T04:01:56;15.23;;;4.60;;
45007;SDS011;30743;52.008;5.644;2023-07-31T04:04:22;19.13;;;4.78;;
45007;SDS011;30743;52.008;5.644;2023-07-31T04:06:47;12.20;;;4.65;;
45007;SDS011;30743;52.008;5.644;2023-07-31T04:09:13;13.57;;;5.55;;
45007;SDS011;30743;52.008;5.644;2023-07-31T04:11:38;10.25;;;4.10;;
45007;SDS011;30743;52.008;5.644;2023-07-31T04:14:04;15.07;;;4.40;;
45007;SDS011;30743;52.008;5.644;2023-07-31T04:16:29;11.65;;;4.20;;
45007;SDS011;30743;52.008;5.644;2023-07-31T04:18:55;10.10;;;4.53;;
45007;SDS011;30743;52.008;5.644;2023-07-31T04:21:20;10.50;;;5.10;;
45007;SDS011;30743;52.008;5.644;2023-07-31T04:23:46;10.93;;;4.60;;
45007;SDS011;30743;52.008;5.644;2023-07-31T04:26:11;12.48;;;5.00;;
45007;SDS011;30743;52.008;5.644;2023-07-31T04:28:37;13.20;;;4.70;;
45007;SDS011;30743;52.008;5.644;2023-07-31T04:31:02;10.88;;;4.13;;
45007;SDS011;30743;52.008;5.644;2023-07-31T04:33:28;14.95;;;4.40;;
45007;SDS011;30743;52.008;5.644;2023-07-31T04:35:54;10.48;;;4.38;;
45007;SDS011;30743;52.008;5.644;2023-07-31T04:38:20;11.48;;;3.80;;
45007;SDS011;30743;52.008;5.644;2023-07-31T04:40:46;9.35;;;3.83;;
45007;SDS011;30743;52.008;5.644;2023-07-31T04:43:12;13.73;;;4.85;;
45007;SDS011;30743;52.008;5.644;2023-07-31T04:45:37;11.00;;;4.50;;
45007;SDS011;30743;52.008;5.644;2023-07-31T04:48:03;11.40;;;4.82;;
45007;SDS011;30743;52.008;5.644;2023-07-31T04:50:29;14.07;;;4.22;;
45007;SDS011;30743;52.008;5.644;2023-07-31T04:52:55;9.70;;;3.70;;
45007;SDS011;30743;52.008;5.644;2023-07-31T04:55:21;8.82;;;3.90;;
45007;SDS011;30743;52.008;5.644;2023-07-31T04:57:46;11.13;;;4.13;;
45007;SDS011;30743;52.008;5.644;2023-07-31T05:00:12;8.25;;;3.85;;
45007;SDS011;30743;52.008;5.644;2023-07-31T05:02:37;9.65;;;3.80;;
45007;SDS011;30743;52.008;5.644;2023-07-31T05:05:03;10.38;;;3.97;;
45007;SDS011;30743;52.008;5.644;2023-07-31T05:07:29;9.20;;;4.07;;
45007;SDS011;30743;52.008;5.644;2023-07-31T05:09:55;10.43;;;3.78;;
45007;SDS011;30743;52.008;5.644;2023-07-31T05:12:20;9.25;;;4.07;;
45007;SDS011;30743;52.008;5.644;2023-07-31T05:14:46;9.57;;;4.55;;
45007;SDS011;30743;52.008;5.644;2023-07-31T05:17:11;10.55;;;3.55;;
45007;SDS011;30743;52.008;5.644;2023-07-31T05:19:36;10.85;;;4.75;;
45007;SDS011;30743;52.008;5.644;2023-07-31T05:22:02;9.95;;;3.75;;
45007;SDS011;30743;52.008;5.644;2023-07-31T05:24:28;8.73;;;3.47;;
45007;SDS011;30743;52.008;5.644;2023-07-31T05:26:53;7.38;;;3.47;;
45007;SDS011;30743;52.008;5.644;2023-07-31T05:29:19;9.10;;;4.00;;
45007;SDS011;30743;52.008;5.644;2023-07-31T05:31:44;9.05;;;4.05;;
45007;SDS011;30743;52.008;5.644;2023-07-31T05:34:10;10.93;;;4.20;;
45007;SDS011;30743;52.008;5.644;2023-07-31T05:36:35;11.65;;;4.10;;
45007;SDS011;30743;52.008;5.644;2023-07-31T05:39:01;11.18;;;4.45;;
45007;SDS011;30743;52.008;5.644;2023-07-31T05:41:31;11.27;;;5.28;;
45007;SDS011;30743;52.008;5.644;2023-07-31T05:43:56;13.50;;;4.65;;
45007;SDS011;30743;52.008;5.644;2023-07-31T05:46:22;10.98;;;4.78;;
45007;SDS011;30743;52.008;5.644;2023-07-31T05:48:47;10.38;;;4.75;;
45007;SDS011;30743;52.008;5.644;2023-07-31T05:51:13;9.38;;;4.55;;
45007;SDS011;30743;52.008;5.644;2023-07-31T05:53:38;11.50;;;5.40;;
45007;SDS011;30743;52.008;5.644;2023-07-31T05:56:05;9.43;;;5.00;;
45007;SDS011;30743;52.008;5.644;2023-07-31T05:58:31;9.63;;;4.47;;
45007;SDS011;30743;52.008;5.644;2023-07-31T06:00:56;9.30;;;4.50;;
45007;SDS011;30743;52.008;5.644;2023-07-31T06:03:22;8.65;;;4.40;;
45007;SDS011;30743;52.008;5.644;2023-07-31T06:05:47;13.10;;;5.13;;
45007;SDS011;30743;52.008;5.644;2023-07-31T06:08:13;8.45;;;4.15;;
45007;SDS011;30743;52.008;5.644;2023-07-31T06:10:38;9.32;;;4.30;;
45007;SDS011;30743;52.008;5.644;2023-07-31T06:13:04;9.02;;;4.03;;
45007;SDS011;30743;52.008;5.644;2023-07-31T06:15:30;9.18;;;4.03;;
45007;SDS011;30743;52.008;5.644;2023-07-31T06:17:55;6.57;;;3.90;;
45007;SDS011;30743;52.008;5.644;2023-07-31T06:20:21;6.18;;;3.47;;
45007;SDS011;30743;52.008;5.644;2023-07-31T06:22:46;7.90;;;3.75;;
45007;SDS011;30743;52.008;5.644;2023-07-31T06:25:12;5.47;;;3.13;;
45007;SDS011;30743;52.008;5.644;2023-07-31T06:27:37;5.53;;;3.20;;
45007;SDS011;30743;52.008;5.644;2023-07-31T06:30:03;6.57;;;3.13;;
45007;SDS011;30743;52.008;5.644;2023-07-31T06:32:30;7.68;;;3.45;;
45007;SDS011;30743;52.008;5.644;2023-07-31T06:34:55;9.68;;;3.67;;
45007;SDS011;30743;52.008;5.644;2023-07-31T06:37:21;7.43;;;3.78;;
45007;SDS011;30743;52.008;5.644;2023-07-31T06:39:46;6.50;;;3.10;;
45007;SDS011;30743;52.008;5.644;2023-07-31T06:42:12;7.93;;;3.83;;
45007;SDS011;30743;52.008;5.644;2023-07-31T06:44:37;6.40;;;3.30;;
45007;SDS011;30743;52.008;5.644;2023-07-31T06:47:03;8.13;;;2.90;;
45007;SDS011;30743;52.008;5.644;2023-07-31T06:49:28;7.28;;;2.55;;
45007;SDS011;30743;52.008;5.644;2023-07-31T06:51:54;5.38;;;3.00;;
45007;SDS011;30743;52.008;5.644;2023-07-31T06:54:20;5.75;;;2.40;;
45007;SDS011;30743;52.008;5.644;2023-07-31T06:56:45;5.57;;;2.67;;
45007;SDS011;30743;52.008;5.644;2023-07-31T06:59:11;4.75;;;2.28;;
45007;SDS011;30743;52.008;5.644;2023-07-31T07:01:36;4.97;;;2.47;;
45007;SDS011;30743;52.008;5.644;2023-07-31T07:04:02;2.95;;;2.20;;
45007;SDS011;30743;52.008;5.644;2023-07-31T07:06:27;4.30;;;2.03;;
45007;SDS011;30743;52.008;5.644;2023-07-31T07:08:53;4.03;;;2.50;;
45007;SDS011;30743;52.008;5.644;2023-07-31T07:11:18;3.42;;;1.88;;
45007;SDS011;30743;52.008;5.644;2023-07-31T07:13:44;1.95;;;1.42;;
45007;SDS011;30743;52.008;5.644;2023-07-31T07:16:09;3.15;;;1.85;;
45007;SDS011;30743;52.008;5.644;2023-07-31T07:18:35;2.00;;;1.50;;
45007;SDS011;30743;52.008;5.644;2023-07-31T07:21:01;3.63;;;1.58;;
45007;SDS011;30743;52.008;5.644;2023-07-31T07:23:27;2.63;;;1.42;;
45007;SDS011;30743;52.008;5.644;2023-07-31T07:25:52;2.58;;;1.50;;
45007;SDS011;30743;52.008;5.644;2023-07-31T07:28:18;2.17;;;1.50;;
45007;SDS011;30743;52.008;5.644;2023-07-31T07:30:43;3.47;;;1.52;;
45007;SDS011;30743;52.008;5.644;2023-07-31T07:33:09;1.98;;;1.77;;
45007;SDS011;30743;52.008;5.644;2023-07-31T07:35:35;2.78;;;1.90;;
45007;SDS011;30743;52.008;5.644;2023-07-31T07:38:03;4.45;;;1.80;;
45007;SDS011;30743;52.008;5.644;2023-07-31T07:40:29;2.78;;;1.95;;
45007;SDS011;30743;52.008;5.644;2023-07-31T07:42:54;3.78;;;2.60;;
45007;SDS011;30743;52.008;5.644;2023-07-31T07:45:20;3.17;;;2.60;;
45007;SDS011;30743;52.008;5.644;2023-07-31T07:47:45;3.35;;;2.40;;
45007;SDS011;30743;52.008;5.644;2023-07-31T07:50:11;3.53;;;2.45;;
45007;SDS011;30743;52.008;5.644;2023-07-31T07:52:36;3.03;;;2.10;;
45007;SDS011;30743;52.008;5.644;2023-07-31T07:55:02;4.28;;;2.85;;
45007;SDS011;30743;52.008;5.644;2023-07-31T07:57:28;3.35;;;2.58;;
45007;SDS011;30743;52.008;5.644;2023-07-31T07:59:54;3.10;;;2.25;;
45007;SDS011;30743;52.008;5.644;2023-07-31T08:02:20;2.78;;;2.55;;
45007;SDS011;30743;52.008;5.644;2023-07-31T08:04:45;3.05;;;2.33;;
45007;SDS011;30743;52.008;5.644;2023-07-31T08:07:11;3.97;;;2.22;;
45007;SDS011;30743;52.008;5.644;2023-07-31T08:09:39;4.13;;;2.47;;
45007;SDS011;30743;52.008;5.644;2023-07-31T08:12:06;2.65;;;2.13;;
45007;SDS011;30743;52.008;5.644;2023-07-31T08:14:32;3.60;;;2.20;;
45007;SDS011;30743;52.008;5.644;2023-07-31T08:16:57;2.95;;;2.08;;
45007;SDS011;30743;52.008;5.644;2023-07-31T08:19:23;2.38;;;1.92;;
45007;SDS011;30743;52.008;5.644;2023-07-31T08:21:48;2.78;;;2.00;;
45007;SDS011;30743;52.008;5.644;2023-07-31T08:24:14;2.40;;;2.10;;
45007;SDS011;30743;52.008;5.644;2023-07-31T08:26:39;4.55;;;2.33;;
45007;SDS011;30743;52.008;5.644;2023-07-31T08:29:05;3.53;;;3.22;;
45007;SDS011;30743;52.008;5.644;2023-07-31T08:31:30;2.53;;;2.15;;
45007;SDS011;30743;52.008;5.644;2023-07-31T08:33:56;2.33;;;2.13;;
45007;SDS011;30743;52.008;5.644;2023-07-31T08:36:22;2.65;;;2.30;;
45007;SDS011;30743;52.008;5.644;2023-07-31T08:38:47;2.75;;;2.10;;
45007;SDS011;30743;52.008;5.644;2023-07-31T08:41:13;3.63;;;3.10;;
45007;SDS011;30743;52.008;5.644;2023-07-31T08:43:38;2.40;;;2.17;;
45007;SDS011;30743;52.008;5.644;2023-07-31T08:46:04;2.28;;;2.08;;
45007;SDS011;30743;52.008;5.644;2023-07-31T08:48:31;2.47;;;2.28;;
45007;SDS011;30743;52.008;5.644;2023-07-31T08:50:58;2.67;;;2.22;;
45007;SDS011;30743;52.008;5.644;2023-07-31T08:53:23;2.78;;;2.20;;
45007;SDS011;30743;52.008;5.644;2023-07-31T08:55:49;2.03;;;1.85;;
45007;SDS011;30743;52.008;5.644;2023-07-31T08:58:17;2.60;;;2.22;;
45007;SDS011;30743;52.008;5.644;2023-07-31T09:00:43;3.22;;;2.45;;
45007;SDS011;30743;52.008;5.644;2023-07-31T09:03:15;2.78;;;2.28;;
45007;SDS011;30743;52.008;5.644;2023-07-31T09:05:43;2.38;;;2.10;;
45007;SDS011;30743;52.008;5.644;2023-07-31T09:08:11;2.20;;;2.00;;
45007;SDS011;30743;52.008;5.644;2023-07-31T09:10:44;2.92;;;2.33;;
45007;SDS011;30743;52.008;5.644;2023-07-31T09:13:15;2.67;;;2.47;;
45007;SDS011;30743;52.008;5.644;2023-07-31T09:15:43;3.08;;;2.42;;
45007;SDS011;30743;52.008;5.644;2023-07-31T09:18:10;2.63;;;2.40;;
45007;SDS011;30743;52.008;5.644;2023-07-31T09:20:36;3.83;;;2.67;;
45007;SDS011;30743;52.008;5.644;2023-07-31T09:23:09;3.55;;;2.97;;
45007;SDS011;30743;52.008;5.644;2023-07-31T09:25:36;4.20;;;3.35;;
45007;SDS011;30743;52.008;5.644;2023-07-31T09:28:03;6.18;;;3.78;;
45007;SDS011;30743;52.008;5.644;2023-07-31T09:30:32;4.57;;;3.58;;
45007;SDS011;30743;52.008;5.644;2023-07-31T09:33:13;3.65;;;3.30;;
45007;SDS011;30743;52.008;5.644;2023-07-31T09:35:39;3.63;;;3.33;;
45007;SDS011;30743;52.008;5.644;2023-07-31T09:40:36;4.63;;;4.03;;
45007;SDS011;30743;52.008;5.644;2023-07-31T09:43:06;5.97;;;4.25;;
45007;SDS011;30743;52.008;5.644;2023-07-31T09:45:35;6.00;;;4.65;;
45007;SDS011;30743;52.008;5.644;2023-07-31T09:48:02;5.70;;;4.45;;
45007;SDS011;30743;52.008;5.644;2023-07-31T09:50:31;4.32;;;3.90;;
45007;SDS011;30743;52.008;5.644;2023-07-31T09:52:57;6.53;;;4.63;;
45007;SDS011;30743;52.008;5.644;2023-07-31T09:55:23;5.10;;;4.50;;
45007;SDS011;30743;52.008;5.644;2023-07-31T09:57:49;5.95;;;5.35;;
45007;SDS011;30743;52.008;5.644;2023-07-31T10:00:16;5.18;;;4.50;;
45007;SDS011;30743;52.008;5.644;2023-07-31T10:02:46;6.40;;;4.75;;
45007;SDS011;30743;52.008;5.644;2023-07-31T10:05:15;5.60;;;4.72;;
45007;SDS011;30743;52.008;5.644;2023-07-31T10:07:42;7.57;;;5.35;;
45007;SDS011;30743;52.008;5.644;2023-07-31T10:10:16;5.97;;;4.80;;
45007;SDS011;30743;52.008;5.644;2023-07-31T10:12:44;6.15;;;5.55;;
45007;SDS011;30743;52.008;5.644;2023-07-31T10:15:11;6.63;;;4.72;;
45007;SDS011;30743;52.008;5.644;2023-07-31T10:17:37;6.47;;;4.70;;
45007;SDS011;30743;52.008;5.644;2023-07-31T10:20:03;6.28;;;4.72;;
45007;SDS011;30743;52.008;5.644;2023-07-31T10:22:30;4.85;;;4.15;;
45007;SDS011;30743;52.008;5.644;2023-07-31T10:25:00;5.00;;;4.43;;
45007;SDS011;30743;52.008;5.644;2023-07-31T10:27:26;4.30;;;3.90;;
45007;SDS011;30743;52.008;5.644;2023-07-31T10:29:53;7.03;;;4.13;;
45007;SDS011;30743;52.008;5.644;2023-07-31T10:32:21;5.85;;;4.55;;
45007;SDS011;30743;52.008;5.644;2023-07-31T10:34:47;5.45;;;3.70;;
45007;SDS011;30743;52.008;5.644;2023-07-31T10:37:22;5.28;;;4.18;;
45007;SDS011;30743;52.008;5.644;2023-07-31T10:40:00;4.53;;;4.00;;
45007;SDS011;30743;52.008;5.644;2023-07-31T10:42:30;4.57;;;3.58;;
45007;SDS011;30743;52.008;5.644;2023-07-31T10:45:05;3.63;;;3.33;;
45007;SDS011;30743;52.008;5.644;2023-07-31T10:47:38;3.92;;;3.53;;
45007;SDS011;30743;52.008;5.644;2023-07-31T10:50:13;5.10;;;4.00;;
45007;SDS011;30743;52.008;5.644;2023-07-31T10:52:55;4.38;;;3.55;;
45007;SDS011;30743;52.008;5.644;2023-07-31T10:55:26;5.88;;;4.60;;
45007;SDS011;30743;52.008;5.644;2023-07-31T10:57:52;6.30;;;5.60;;
45007;SDS011;30743;52.008;5.644;2023-07-31T11:08:15;4.45;;;3.53;;
45007;SDS011;30743;52.008;5.644;2023-07-31T11:13:26;4.18;;;3.20;;
45007;SDS011;30743;52.008;5.644;2023-07-31T11:15:52;4.07;;;3.10;;
45007;SDS011;30743;52.008;5.644;2023-07-31T11:18:17;3.85;;;3.42;;
45007;SDS011;30743;52.008;5.644;2023-07-31T11:20:43;5.28;;;3.38;;
45007;SDS011;30743;52.008;5.644;2023-07-31T11:23:09;4.13;;;3.72;;
45007;SDS011;30743;52.008;5.644;2023-07-31T11:25:35;4.53;;;4.13;;
45007;SDS011;30743;52.008;5.644;2023-07-31T11:28:05;4.72;;;3.80;;
45007;SDS011;30743;52.008;5.644;2023-07-31T11:30:32;3.90;;;3.50;;
45007;SDS011;30743;52.008;5.644;2023-07-31T11:32:59;4.10;;;3.65;;
45007;SDS011;30743;52.008;5.644;2023-07-31T11:35:35;4.90;;;3.42;;
45007;SDS011;30743;52.008;5.644;2023-07-31T11:38:11;4.97;;;3.63;;
45007;SDS011;30743;52.008;5.644;2023-07-31T11:40:46;4.13;;;3.28;;
45007;SDS011;30743;52.008;5.644;2023-07-31T11:43:12;4.65;;;3.30;;
45007;SDS011;30743;52.008;5.644;2023-07-31T11:45:41;3.53;;;3.17;;
45007;SDS011;30743;52.008;5.644;2023-07-31T11:48:17;3.63;;;3.22;;
45007;SDS011;30743;52.008;5.644;2023-07-31T11:50:43;5.20;;;3.38;;
45007;SDS011;30743;52.008;5.644;2023-07-31T11:53:11;5.32;;;3.70;;
45007;SDS011;30743;52.008;5.644;2023-07-31T11:55:37;5.88;;;3.38;;
45007;SDS011;30743;52.008;5.644;2023-07-31T11:58:03;3.95;;;3.15;;
45007;SDS011;30743;52.008;5.644;2023-07-31T12:00:29;5.57;;;5.07;;
45007;SDS011;30743;52.008;5.644;2023-07-31T12:02:55;6.15;;;5.55;;
45007;SDS011;30743;52.008;5.644;2023-07-31T12:05:21;5.13;;;4.35;;
45007;SDS011;30743;52.008;5.644;2023-07-31T12:13:00;3.50;;;2.30;;
45007;SDS011;30743;52.008;5.644;2023-07-31T12:15:42;3.28;;;2.22;;
45007;SDS011;30743;52.008;5.644;2023-07-31T12:18:17;1.77;;;1.67;;
45007;SDS011;30743;52.008;5.644;2023-07-31T12:20:46;3.83;;;2.20;;
45007;SDS011;30743;52.008;5.644;2023-07-31T12:25:59;2.58;;;1.98;;
45007;SDS011;30743;52.008;5.644;2023-07-31T12:28:29;4.13;;;1.70;;
45007;SDS011;30743;52.008;5.644;2023-07-31T12:30:59;2.38;;;1.73;;
45007;SDS011;30743;52.008;5.644;2023-07-31T12:33:30;3.83;;;1.90;;
45007;SDS011;30743;52.008;5.644;2023-07-31T12:35:57;2.20;;;2.00;;
45007;SDS011;30743;52.008;5.644;2023-07-31T12:38:22;3.80;;;2.30;;
45007;SDS011;30743;52.008;5.644;2023-07-31T12:40:48;2.70;;;2.20;;
45007;SDS011;30743;52.008;5.644;2023-07-31T12:43:13;2.95;;;2.47;;
45007;SDS011;30743;52.008;5.644;2023-07-31T12:45:39;5.57;;;3.95;;
45007;SDS011;30743;52.008;5.644;2023-07-31T12:48:04;6.57;;;4.00;;
45007;SDS011;30743;52.008;5.644;2023-07-31T12:50:30;3.80;;;3.05;;
45007;SDS011;30743;52.008;5.644;2023-07-31T12:52:56;3.40;;;3.10;;
45007;SDS011;30743;52.008;5.644;2023-07-31T12:55:22;3.05;;;2.75;;
45007;SDS011;30743;52.008;5.644;2023-07-31T12:57:48;5.38;;;3.28;;
45007;SDS011;30743;52.008;5.644;2023-07-31T13:00:14;5.57;;;3.55;;
45007;SDS011;30743;52.008;5.644;2023-07-31T13:02:39;3.60;;;3.30;;
45007;SDS011;30743;52.008;5.644;2023-07-31T13:05:05;4.25;;;3.35;;
45007;SDS011;30743;52.008;5.644;2023-07-31T13:07:31;5.40;;;3.58;;
45007;SDS011;30743;52.008;5.644;2023-07-31T13:09:56;4.68;;;3.55;;
45007;SDS011;30743;52.008;5.644;2023-07-31T13:12:22;4.40;;;3.28;;
45007;SDS011;30743;52.008;5.644;2023-07-31T13:14:47;4.03;;;3.08;;
45007;SDS011;30743;52.008;5.644;2023-07-31T13:17:13;4.03;;;3.63;;
45007;SDS011;30743;52.008;5.644;2023-07-31T13:19:38;4.80;;;3.50;;
45007;SDS011;30743;52.008;5.644;2023-07-31T13:22:04;5.63;;;3.92;;
45007;SDS011;30743;52.008;5.644;2023-07-31T13:24:29;4.13;;;3.30;;
45007;SDS011;30743;52.008;5.644;2023-07-31T13:26:55;4.60;;;3.60;;
45007;SDS011;30743;52.008;5.644;2023-07-31T13:29:22;4.13;;;3.70;;
45007;SDS011;30743;52.008;5.644;2023-07-31T13:31:48;3.63;;;3.33;;
45007;SDS011;30743;52.008;5.644;2023-07-31T13:34:14;4.10;;;3.40;;
45007;SDS011;30743;52.008;5.644;2023-07-31T13:36:39;3.75;;;3.28;;
45007;SDS011;30743;52.008;5.644;2023-07-31T13:39:06;4.85;;;3.33;;
45007;SDS011;30743;52.008;5.644;2023-07-31T13:41:32;4.65;;;3.55;;
45007;SDS011;30743;52.008;5.644;2023-07-31T13:43:57;4.50;;;3.80;;
45007;SDS011;30743;52.008;5.644;2023-07-31T13:46:23;4.10;;;3.50;;
45007;SDS011;30743;52.008;5.644;2023-07-31T13:48:48;5.22;;;3.40;;
45007;SDS011;30743;52.008;5.644;2023-07-31T13:51:13;4.38;;;3.92;;
45007;SDS011;30743;52.008;5.644;2023-07-31T13:53:39;6.07;;;4.00;;
45007;SDS011;30743;52.008;5.644;2023-07-31T13:56:04;7.90;;;4.30;;
45007;SDS011;30743;52.008;5.644;2023-07-31T13:58:30;4.63;;;4.18;;
45007;SDS011;30743;52.008;5.644;2023-07-31T14:00:57;4.38;;;3.97;;
45007;SDS011;30743;52.008;5.644;2023-07-31T14:03:22;6.47;;;4.70;;
45007;SDS011;30743;52.008;5.644;2023-07-31T14:05:48;7.63;;;4.80;;
45007;SDS011;30743;52.008;5.644;2023-07-31T14:08:13;6.57;;;5.00;;
45007;SDS011;30743;52.008;5.644;2023-07-31T14:10:39;7.10;;;4.30;;
45007;SDS011;30743;52.008;5.644;2023-07-31T14:13:04;7.53;;;5.40;;
45007;SDS011;30743;52.008;5.644;2023-07-31T14:15:30;7.57;;;5.13;;
45007;SDS011;30743;52.008;5.644;2023-07-31T14:17:56;7.47;;;4.75;;
45007;SDS011;30743;52.008;5.644;2023-07-31T14:20:22;9.23;;;5.28;;
45007;SDS011;30743;52.008;5.644;2023-07-31T14:22:47;6.70;;;5.30;;
45007;SDS011;30743;52.008;5.644;2023-07-31T14:25:13;10.60;;;6.15;;
45007;SDS011;30743;52.008;5.644;2023-07-31T14:27:38;6.22;;;4.35;;
45007;SDS011;30743;52.008;5.644;2023-07-31T14:30:04;6.30;;;4.75;;
45007;SDS011;30743;52.008;5.644;2023-07-31T14:32:30;5.97;;;4.40;;
45007;SDS011;30743;52.008;5.644;2023-07-31T14:34:56;5.68;;;4.57;;
45007;SDS011;30743;52.008;5.644;2023-07-31T14:37:22;6.07;;;3.80;;
45007;SDS011;30743;52.008;5.644;2023-07-31T14:39:47;4.95;;;4.00;;
45007;SDS011;30743;52.008;5.644;2023-07-31T14:42:13;6.35;;;3.90;;
45007;SDS011;30743;52.008;5.644;2023-07-31T14:44:38;6.70;;;4.18;;
45007;SDS011;30743;52.008;5.644;2023-07-31T14:47:04;5.55;;;4.00;;
45007;SDS011;30743;52.008;5.644;2023-07-31T14:49:30;5.38;;;3.85;;
45007;SDS011;30743;52.008;5.644;2023-07-31T14:51:55;7.95;;;3.92;;
45007;SDS011;30743;52.008;5.644;2023-07-31T14:54:21;5.57;;;4.07;;
45007;SDS011;30743;52.008;5.644;2023-07-31T14:56:46;5.88;;;3.67;;
45007;SDS011;30743;52.008;5.644;2023-07-31T14:59:12;4.93;;;3.80;;
45007;SDS011;30743;52.008;5.644;2023-07-31T15:01:37;5.35;;;3.25;;
45007;SDS011;30743;52.008;5.644;2023-07-31T15:04:03;7.40;;;4.00;;